sensor_id;sensor_type;location;lat;lon;timestamp;P1;durP1;ratioP1;P2;durP2;ratioP2
18320;SDS011;54904;54.350;18.664;2022-11-15T00:01:22;20.80;;;12.70;;
18320;SDS011;54904;54.350;18.664;2022-11-15T00:04:08;23.07;;;13.40;;
18320;SDS011;54904;54.350;18.664;2022-11-15T00:06:54;26.80;;;15.30;;
18320;SDS011;54904;54.350;18.664;2022-11-15T00:09:40;20.67;;;12.90;;
18320;SDS011;54904;54.350;18.664;2022-11-15T00:12:26;28.33;;;16.20;;
18320;SDS011;54904;54.350;18.664;2022-11-15T00:15:12;29.87;;;16.60;;
18320;SDS011;54904;54.350;18.664;2022-11-15T00:17:59;28.70;;;15.47;;
18320;SDS011;54904;54.350;18.664;2022-11-15T00:20:44;25.77;;;14.70;;
18320;SDS011;54904;54.350;18.664;2022-11-15T00:23:30;26.67;;;14.30;;
18320;SDS011;54904;54.350;18.664;2022-11-15T00:26:16;29.93;;;17.70;;
18320;SDS011;54904;54.350;18.664;2022-11-15T00:29:02;32.93;;;17.73;;
18320;SDS011;54904;54.350;18.664;2022-11-15T00:31:48;25.80;;;14.40;;
18320;SDS011;54904;54.350;18.664;2022-11-15T00:34:35;31.40;;;17.83;;
18320;SDS011;54904;54.350;18.664;2022-11-15T00:37:20;36.97;;;19.33;;
18320;SDS011;54904;54.350;18.664;2022-11-15T00:40:06;30.80;;;15.90;;
18320;SDS011;54904;54.350;18.664;2022-11-15T00:42:52;36.23;;;18.27;;
18320;SDS011;54904;54.350;18.664;2022-11-15T00:45:38;24.43;;;13.97;;
18320;SDS011;54904;54.350;18.664;2022-11-15T00:48:24;39.13;;;19.23;;
18320;SDS011;54904;54.350;18.664;2022-11-15T00:51:10;32.90;;;17.90;;
18320;SDS011;54904;54.350;18.664;2022-11-15T00:53:56;36.40;;;18.50;;
18320;SDS011;54904;54.350;18.664;2022-11-15T00:56:41;33.70;;;18.20;;
18320;SDS011;54904;54.350;18.664;2022-11-15T00:59:27;43.67;;;21.17;;
18320;SDS011;54904;54.350;18.664;2022-11-15T01:02:12;38.43;;;19.57;;
18320;SDS011;54904;54.350;18.664;2022-11-15T01:04:58;41.90;;;20.43;;
18320;SDS011;54904;54.350;18.664;2022-11-15T01:07:45;44.83;;;21.47;;
18320;SDS011;54904;54.350;18.664;2022-11-15T01:10:31;41.67;;;20.43;;
18320;SDS011;54904;54.350;18.664;2022-11-15T01:13:17;40.03;;;20.33;;
18320;SDS011;54904;54.350;18.664;2022-11-15T01:16:05;38.80;;;18.87;;
18320;SDS011;54904;54.350;18.664;2022-11-15T01:18:52;39.40;;;18.73;;
18320;SDS011;54904;54.350;18.664;2022-11-15T01:21:38;31.77;;;16.13;;
18320;SDS011;54904;54.350;18.664;2022-11-15T01:24:25;42.20;;;21.07;;
18320;SDS011;54904;54.350;18.664;2022-11-15T01:27:11;35.60;;;17.63;;
18320;SDS011;54904;54.350;18.664;2022-11-15T01:29:56;36.03;;;17.43;;
18320;SDS011;54904;54.350;18.664;2022-11-15T01:32:42;36.57;;;18.17;;
18320;SDS011;54904;54.350;18.664;2022-11-15T01:35:27;42.23;;;20.33;;
18320;SDS011;54904;54.350;18.664;2022-11-15T01:38:13;29.83;;;16.30;;
18320;SDS011;54904;54.350;18.664;2022-11-15T01:41:00;34.07;;;17.70;;
18320;SDS011;54904;54.350;18.664;2022-11-15T01:43:46;42.23;;;20.50;;
18320;SDS011;54904;54.350;18.664;2022-11-15T01:46:33;43.70;;;20.30;;
18320;SDS011;54904;54.350;18.664;2022-11-15T01:49:21;41.70;;;20.57;;
18320;SDS011;54904;54.350;18.664;2022-11-15T01:52:09;44.50;;;20.93;;
18320;SDS011;54904;54.350;18.664;2022-11-15T01:54:59;38.60;;;18.80;;
18320;SDS011;54904;54.350;18.664;2022-11-15T01:57:53;43.53;;;19.03;;
18320;SDS011;54904;54.350;18.664;2022-11-15T02:00:41;31.03;;;15.17;;
18320;SDS011;54904;54.350;18.664;2022-11-15T02:03:29;27.27;;;13.40;;
18320;SDS011;54904;54.350;18.664;2022-11-15T02:06:20;31.60;;;14.37;;
18320;SDS011;54904;54.350;18.664;2022-11-15T02:09:06;26.20;;;13.50;;
18320;SDS011;54904;54.350;18.664;2022-11-15T02:11:52;33.33;;;16.53;;
18320;SDS011;54904;54.350;18.664;2022-11-15T02:14:42;45.03;;;20.77;;
18320;SDS011;54904;54.350;18.664;2022-11-15T02:17:33;34.07;;;16.73;;
18320;SDS011;54904;54.350;18.664;2022-11-15T02:20:36;31.87;;;16.07;;
18320;SDS011;54904;54.350;18.664;2022-11-15T02:23:43;34.27;;;15.10;;
18320;SDS011;54904;54.350;18.664;2022-11-15T02:27:05;33.30;;;15.70;;
18320;SDS011;54904;54.350;18.664;2022-11-15T02:30:29;44.03;;;20.67;;
18320;SDS011;54904;54.350;18.664;2022-11-15T02:33:26;38.87;;;17.93;;
18320;SDS011;54904;54.350;18.664;2022-11-15T02:36:22;57.87;;;25.37;;
18320;SDS011;54904;54.350;18.664;2022-11-15T02:39:19;56.90;;;23.53;;
18320;SDS011;54904;54.350;18.664;2022-11-15T02:42:13;58.87;;;25.50;;
18320;SDS011;54904;54.350;18.664;2022-11-15T02:45:21;58.10;;;24.93;;
18320;SDS011;54904;54.350;18.664;2022-11-15T02:48:12;60.43;;;25.20;;
18320;SDS011;54904;54.350;18.664;2022-11-15T02:51:00;62.53;;;25.83;;
18320;SDS011;54904;54.350;18.664;2022-11-15T02:53:46;64.43;;;26.50;;
18320;SDS011;54904;54.350;18.664;2022-11-15T02:56:31;51.03;;;22.83;;
18320;SDS011;54904;54.350;18.664;2022-11-15T02:59:20;35.53;;;16.53;;
18320;SDS011;54904;54.350;18.664;2022-11-15T03:02:26;36.03;;;16.30;;
18320;SDS011;54904;54.350;18.664;2022-11-15T03:05:29;43.27;;;18.40;;
18320;SDS011;54904;54.350;18.664;2022-11-15T03:08:21;49.30;;;20.77;;
18320;SDS011;54904;54.350;18.664;2022-11-15T03:11:13;41.40;;;18.43;;
18320;SDS011;54904;54.350;18.664;2022-11-15T03:14:01;54.33;;;22.60;;
18320;SDS011;54904;54.350;18.664;2022-11-15T03:16:55;35.37;;;16.20;;
18320;SDS011;54904;54.350;18.664;2022-11-15T03:19:48;34.97;;;16.10;;
18320;SDS011;54904;54.350;18.664;2022-11-15T03:22:41;31.53;;;14.57;;
18320;SDS011;54904;54.350;18.664;2022-11-15T03:25:28;40.27;;;18.17;;
18320;SDS011;54904;54.350;18.664;2022-11-15T03:28:18;41.37;;;18.27;;
18320;SDS011;54904;54.350;18.664;2022-11-15T03:31:07;58.93;;;24.80;;
18320;SDS011;54904;54.350;18.664;2022-11-15T03:34:11;57.80;;;23.63;;
18320;SDS011;54904;54.350;18.664;2022-11-15T03:37:05;49.70;;;20.53;;
18320;SDS011;54904;54.350;18.664;2022-11-15T03:39:54;46.73;;;20.17;;
18320;SDS011;54904;54.350;18.664;2022-11-15T03:42:42;37.93;;;17.20;;
18320;SDS011;54904;54.350;18.664;2022-11-15T03:45:35;36.70;;;16.37;;
18320;SDS011;54904;54.350;18.664;2022-11-15T03:48:26;48.03;;;19.57;;
18320;SDS011;54904;54.350;18.664;2022-11-15T03:51:14;47.53;;;19.90;;
18320;SDS011;54904;54.350;18.664;2022-11-15T03:54:02;51.23;;;21.33;;
18320;SDS011;54904;54.350;18.664;2022-11-15T03:56:49;45.37;;;18.97;;
18320;SDS011;54904;54.350;18.664;2022-11-15T03:59:34;40.37;;;16.90;;
18320;SDS011;54904;54.350;18.664;2022-11-15T04:02:20;51.20;;;21.37;;
18320;SDS011;54904;54.350;18.664;2022-11-15T04:05:06;54.90;;;21.73;;
18320;SDS011;54904;54.350;18.664;2022-11-15T04:07:52;49.63;;;19.93;;
18320;SDS011;54904;54.350;18.664;2022-11-15T04:10:37;50.30;;;21.57;;
18320;SDS011;54904;54.350;18.664;2022-11-15T04:13:24;51.87;;;21.47;;
18320;SDS011;54904;54.350;18.664;2022-11-15T04:16:10;39.17;;;16.63;;
18320;SDS011;54904;54.350;18.664;2022-11-15T04:18:55;39.03;;;17.53;;
18320;SDS011;54904;54.350;18.664;2022-11-15T04:21:55;44.03;;;17.83;;
18320;SDS011;54904;54.350;18.664;2022-11-15T04:24:58;34.57;;;15.70;;
18320;SDS011;54904;54.350;18.664;2022-11-15T04:27:43;44.00;;;18.63;;
18320;SDS011;54904;54.350;18.664;2022-11-15T04:30:30;33.73;;;14.90;;
18320;SDS011;54904;54.350;18.664;2022-11-15T04:33:16;33.60;;;14.13;;
18320;SDS011;54904;54.350;18.664;2022-11-15T04:36:01;38.77;;;17.40;;
18320;SDS011;54904;54.350;18.664;2022-11-15T04:39:03;47.23;;;19.37;;
18320;SDS011;54904;54.350;18.664;2022-11-15T04:41:49;37.17;;;16.80;;
18320;SDS011;54904;54.350;18.664;2022-11-15T04:44:35;38.23;;;15.77;;
18320;SDS011;54904;54.350;18.664;2022-11-15T04:47:22;29.20;;;13.63;;
18320;SDS011;54904;54.350;18.664;2022-11-15T04:50:07;36.57;;;15.43;;
18320;SDS011;54904;54.350;18.664;2022-11-15T04:52:56;51.57;;;20.10;;
18320;SDS011;54904;54.350;18.664;2022-11-15T04:55:43;51.43;;;20.53;;
18320;SDS011;54904;54.350;18.664;2022-11-15T04:58:29;49.50;;;21.40;;
18320;SDS011;54904;54.350;18.664;2022-11-15T05:01:15;46.07;;;19.03;;
18320;SDS011;54904;54.350;18.664;2022-11-15T05:04:02;37.70;;;16.40;;
18320;SDS011;54904;54.350;18.664;2022-11-15T05:07:05;26.47;;;13.47;;
18320;SDS011;54904;54.350;18.664;2022-11-15T05:09:51;28.17;;;13.37;;
18320;SDS011;54904;54.350;18.664;2022-11-15T05:12:36;46.43;;;20.13;;
18320;SDS011;54904;54.350;18.664;2022-11-15T05:15:22;47.97;;;20.07;;
18320;SDS011;54904;54.350;18.664;2022-11-15T05:18:07;49.40;;;20.83;;
18320;SDS011;54904;54.350;18.664;2022-11-15T05:20:54;48.40;;;19.57;;
18320;SDS011;54904;54.350;18.664;2022-11-15T05:23:40;42.63;;;17.93;;
18320;SDS011;54904;54.350;18.664;2022-11-15T05:26:26;43.23;;;16.97;;
18320;SDS011;54904;54.350;18.664;2022-11-15T05:29:12;35.87;;;15.40;;
18320;SDS011;54904;54.350;18.664;2022-11-15T05:31:58;29.23;;;13.67;;
18320;SDS011;54904;54.350;18.664;2022-11-15T05:34:44;29.57;;;13.53;;
18320;SDS011;54904;54.350;18.664;2022-11-15T05:37:32;23.83;;;11.20;;
18320;SDS011;54904;54.350;18.664;2022-11-15T05:40:17;29.50;;;12.23;;
18320;SDS011;54904;54.350;18.664;2022-11-15T05:43:03;29.97;;;13.53;;
18320;SDS011;54904;54.350;18.664;2022-11-15T05:45:49;33.13;;;13.60;;
18320;SDS011;54904;54.350;18.664;2022-11-15T05:48:35;28.50;;;13.37;;
18320;SDS011;54904;54.350;18.664;2022-11-15T05:51:22;39.20;;;15.37;;
18320;SDS011;54904;54.350;18.664;2022-11-15T05:54:09;41.07;;;16.20;;
18320;SDS011;54904;54.350;18.664;2022-11-15T05:56:55;34.73;;;15.00;;
18320;SDS011;54904;54.350;18.664;2022-11-15T05:59:40;31.67;;;13.90;;
18320;SDS011;54904;54.350;18.664;2022-11-15T06:02:27;27.70;;;12.57;;
18320;SDS011;54904;54.350;18.664;2022-11-15T06:05:13;27.53;;;11.83;;
18320;SDS011;54904;54.350;18.664;2022-11-15T06:07:59;29.47;;;12.47;;
18320;SDS011;54904;54.350;18.664;2022-11-15T06:10:46;24.20;;;11.23;;
18320;SDS011;54904;54.350;18.664;2022-11-15T06:13:31;39.63;;;15.43;;
18320;SDS011;54904;54.350;18.664;2022-11-15T06:16:17;38.17;;;15.73;;
18320;SDS011;54904;54.350;18.664;2022-11-15T06:19:02;36.00;;;15.53;;
18320;SDS011;54904;54.350;18.664;2022-11-15T06:21:48;21.87;;;11.07;;
18320;SDS011;54904;54.350;18.664;2022-11-15T06:24:33;23.70;;;11.60;;
18320;SDS011;54904;54.350;18.664;2022-11-15T06:27:20;23.87;;;10.93;;
18320;SDS011;54904;54.350;18.664;2022-11-15T06:30:06;33.23;;;14.03;;
18320;SDS011;54904;54.350;18.664;2022-11-15T06:32:57;23.83;;;11.37;;
18320;SDS011;54904;54.350;18.664;2022-11-15T06:35:45;21.17;;;10.20;;
18320;SDS011;54904;54.350;18.664;2022-11-15T06:38:30;19.10;;;10.10;;
18320;SDS011;54904;54.350;18.664;2022-11-15T06:41:16;17.87;;;9.73;;
18320;SDS011;54904;54.350;18.664;2022-11-15T06:44:03;22.23;;;11.47;;
18320;SDS011;54904;54.350;18.664;2022-11-15T06:46:49;20.13;;;9.33;;
18320;SDS011;54904;54.350;18.664;2022-11-15T06:49:34;14.10;;;8.03;;
18320;SDS011;54904;54.350;18.664;2022-11-15T06:52:20;12.40;;;7.63;;
18320;SDS011;54904;54.350;18.664;2022-11-15T06:55:06;20.73;;;10.43;;
18320;SDS011;54904;54.350;18.664;2022-11-15T06:57:53;20.20;;;10.20;;
18320;SDS011;54904;54.350;18.664;2022-11-15T07:00:40;16.93;;;8.90;;
18320;SDS011;54904;54.350;18.664;2022-11-15T07:03:26;12.23;;;6.90;;
18320;SDS011;54904;54.350;18.664;2022-11-15T07:06:12;14.50;;;7.97;;
18320;SDS011;54904;54.350;18.664;2022-11-15T07:08:57;13.33;;;7.03;;
18320;SDS011;54904;54.350;18.664;2022-11-15T07:11:43;14.43;;;7.67;;
18320;SDS011;54904;54.350;18.664;2022-11-15T07:14:28;19.13;;;9.03;;
18320;SDS011;54904;54.350;18.664;2022-11-15T07:17:22;15.53;;;8.40;;
18320;SDS011;54904;54.350;18.664;2022-11-15T07:20:12;21.37;;;11.10;;
18320;SDS011;54904;54.350;18.664;2022-11-15T07:22:59;16.30;;;8.60;;
18320;SDS011;54904;54.350;18.664;2022-11-15T07:25:46;15.23;;;7.93;;
18320;SDS011;54904;54.350;18.664;2022-11-15T07:28:32;14.53;;;7.50;;
18320;SDS011;54904;54.350;18.664;2022-11-15T07:31:18;14.50;;;7.23;;
18320;SDS011;54904;54.350;18.664;2022-11-15T07:34:05;18.50;;;9.37;;
18320;SDS011;54904;54.350;18.664;2022-11-15T07:36:50;15.20;;;8.37;;
18320;SDS011;54904;54.350;18.664;2022-11-15T07:39:36;13.70;;;7.07;;
18320;SDS011;54904;54.350;18.664;2022-11-15T07:42:22;12.43;;;7.37;;
18320;SDS011;54904;54.350;18.664;2022-11-15T07:45:25;16.03;;;8.83;;
18320;SDS011;54904;54.350;18.664;2022-11-15T07:48:10;19.77;;;9.77;;
18320;SDS011;54904;54.350;18.664;2022-11-15T07:50:57;26.77;;;13.73;;
18320;SDS011;54904;54.350;18.664;2022-11-15T07:53:44;29.47;;;14.20;;
18320;SDS011;54904;54.350;18.664;2022-11-15T07:56:30;39.53;;;17.30;;
18320;SDS011;54904;54.350;18.664;2022-11-15T07:59:15;44.67;;;19.33;;
18320;SDS011;54904;54.350;18.664;2022-11-15T08:02:01;43.63;;;18.43;;
18320;SDS011;54904;54.350;18.664;2022-11-15T08:04:47;38.73;;;16.37;;
18320;SDS011;54904;54.350;18.664;2022-11-15T08:07:34;39.00;;;16.93;;
18320;SDS011;54904;54.350;18.664;2022-11-15T08:10:21;29.17;;;14.77;;
18320;SDS011;54904;54.350;18.664;2022-11-15T08:13:07;21.53;;;11.37;;
18320;SDS011;54904;54.350;18.664;2022-11-15T08:15:57;18.50;;;9.13;;
18320;SDS011;54904;54.350;18.664;2022-11-15T08:18:43;15.73;;;8.50;;
18320;SDS011;54904;54.350;18.664;2022-11-15T08:21:29;14.43;;;8.20;;
18320;SDS011;54904;54.350;18.664;2022-11-15T08:24:16;12.90;;;7.30;;
18320;SDS011;54904;54.350;18.664;2022-11-15T08:27:01;24.40;;;11.63;;
18320;SDS011;54904;54.350;18.664;2022-11-15T08:29:48;15.43;;;8.73;;
18320;SDS011;54904;54.350;18.664;2022-11-15T08:32:34;11.47;;;6.90;;
18320;SDS011;54904;54.350;18.664;2022-11-15T08:35:19;32.03;;;14.33;;
18320;SDS011;54904;54.350;18.664;2022-11-15T08:38:05;21.57;;;10.97;;
18320;SDS011;54904;54.350;18.664;2022-11-15T08:40:53;18.23;;;9.93;;
18320;SDS011;54904;54.350;18.664;2022-11-15T08:43:46;18.10;;;8.70;;
18320;SDS011;54904;54.350;18.664;2022-11-15T08:46:31;17.20;;;8.83;;
18320;SDS011;54904;54.350;18.664;2022-11-15T08:49:17;18.87;;;9.33;;
18320;SDS011;54904;54.350;18.664;2022-11-15T08:52:03;14.93;;;7.93;;
18320;SDS011;54904;54.350;18.664;2022-11-15T08:54:48;13.43;;;7.67;;
18320;SDS011;54904;54.350;18.664;2022-11-15T08:57:35;21.53;;;10.53;;
18320;SDS011;54904;54.350;18.664;2022-11-15T09:00:21;20.97;;;10.67;;
18320;SDS011;54904;54.350;18.664;2022-11-15T09:03:07;18.03;;;9.63;;
18320;SDS011;54904;54.350;18.664;2022-11-15T09:05:54;16.27;;;8.87;;
18320;SDS011;54904;54.350;18.664;2022-11-15T09:08:40;15.60;;;8.57;;
18320;SDS011;54904;54.350;18.664;2022-11-15T09:11:25;19.70;;;10.20;;
18320;SDS011;54904;54.350;18.664;2022-11-15T09:14:12;16.30;;;8.33;;
18320;SDS011;54904;54.350;18.664;2022-11-15T09:16:58;14.13;;;8.33;;
18320;SDS011;54904;54.350;18.664;2022-11-15T09:19:44;15.83;;;8.83;;
18320;SDS011;54904;54.350;18.664;2022-11-15T09:22:30;15.83;;;8.30;;
18320;SDS011;54904;54.350;18.664;2022-11-15T09:25:16;23.40;;;11.77;;
18320;SDS011;54904;54.350;18.664;2022-11-15T09:28:05;19.50;;;10.47;;
18320;SDS011;54904;54.350;18.664;2022-11-15T09:30:55;17.23;;;9.10;;
18320;SDS011;54904;54.350;18.664;2022-11-15T09:33:43;20.43;;;11.10;;
18320;SDS011;54904;54.350;18.664;2022-11-15T09:36:29;17.10;;;9.17;;
18320;SDS011;54904;54.350;18.664;2022-11-15T09:39:15;11.93;;;7.40;;
18320;SDS011;54904;54.350;18.664;2022-11-15T09:42:07;11.83;;;7.00;;
18320;SDS011;54904;54.350;18.664;2022-11-15T09:45:07;11.30;;;6.87;;
18320;SDS011;54904;54.350;18.664;2022-11-15T09:48:03;12.43;;;7.33;;
18320;SDS011;54904;54.350;18.664;2022-11-15T09:51:19;11.07;;;6.90;;
18320;SDS011;54904;54.350;18.664;2022-11-15T09:53:54;9.90;;;5.97;;
18320;SDS011;54904;54.350;18.664;2022-11-15T09:56:35;11.03;;;6.97;;
18320;SDS011;54904;54.350;18.664;2022-11-15T09:59:13;15.03;;;8.10;;
18320;SDS011;54904;54.350;18.664;2022-11-15T10:01:56;10.77;;;6.57;;
18320;SDS011;54904;54.350;18.664;2022-11-15T10:04:32;12.20;;;6.77;;
18320;SDS011;54904;54.350;18.664;2022-11-15T10:07:01;10.50;;;6.33;;
18320;SDS011;54904;54.350;18.664;2022-11-15T10:09:34;22.00;;;10.97;;
18320;SDS011;54904;54.350;18.664;2022-11-15T10:12:06;15.73;;;8.30;;
18320;SDS011;54904;54.350;18.664;2022-11-15T10:14:34;13.00;;;7.23;;
18320;SDS011;54904;54.350;18.664;2022-11-15T10:17:06;19.70;;;9.30;;
18320;SDS011;54904;54.350;18.664;2022-11-15T10:19:50;10.63;;;6.57;;
18320;SDS011;54904;54.350;18.664;2022-11-15T10:22:25;13.07;;;7.40;;
18320;SDS011;54904;54.350;18.664;2022-11-15T10:25:00;18.10;;;9.53;;
18320;SDS011;54904;54.350;18.664;2022-11-15T10:27:38;19.90;;;10.07;;
18320;SDS011;54904;54.350;18.664;2022-11-15T10:30:10;17.50;;;9.53;;
18320;SDS011;54904;54.350;18.664;2022-11-15T10:32:39;18.20;;;9.40;;
18320;SDS011;54904;54.350;18.664;2022-11-15T10:35:21;17.20;;;8.27;;
18320;SDS011;54904;54.350;18.664;2022-11-15T10:37:50;11.07;;;6.83;;
18320;SDS011;54904;54.350;18.664;2022-11-15T10:40:18;12.03;;;7.47;;
18320;SDS011;54904;54.350;18.664;2022-11-15T10:42:47;22.13;;;11.50;;
18320;SDS011;54904;54.350;18.664;2022-11-15T10:45:24;22.60;;;11.67;;
18320;SDS011;54904;54.350;18.664;2022-11-15T10:47:53;17.27;;;9.67;;
18320;SDS011;54904;54.350;18.664;2022-11-15T10:50:42;14.43;;;8.13;;
18320;SDS011;54904;54.350;18.664;2022-11-15T10:53:11;15.90;;;8.53;;
18320;SDS011;54904;54.350;18.664;2022-11-15T10:55:47;11.03;;;6.50;;
18320;SDS011;54904;54.350;18.664;2022-11-15T10:58:20;16.37;;;8.87;;
18320;SDS011;54904;54.350;18.664;2022-11-15T11:00:52;13.57;;;8.20;;
18320;SDS011;54904;54.350;18.664;2022-11-15T11:03:24;11.50;;;6.73;;
18320;SDS011;54904;54.350;18.664;2022-11-15T11:06:08;9.53;;;6.00;;
18320;SDS011;54904;54.350;18.664;2022-11-15T11:08:36;9.47;;;5.97;;
18320;SDS011;54904;54.350;18.664;2022-11-15T11:11:04;13.57;;;7.40;;
18320;SDS011;54904;54.350;18.664;2022-11-15T11:13:33;11.20;;;6.43;;
18320;SDS011;54904;54.350;18.664;2022-11-15T11:19:10;11.00;;;6.33;;
18320;SDS011;54904;54.350;18.664;2022-11-15T11:21:58;13.07;;;7.30;;
18320;SDS011;54904;54.350;18.664;2022-11-15T11:24:32;11.03;;;6.67;;
18320;SDS011;54904;54.350;18.664;2022-11-15T11:27:13;10.30;;;6.30;;
18320;SDS011;54904;54.350;18.664;2022-11-15T11:29:52;21.70;;;11.67;;
18320;SDS011;54904;54.350;18.664;2022-11-15T11:32:40;24.13;;;11.30;;
18320;SDS011;54904;54.350;18.664;2022-11-15T11:35:24;19.57;;;10.07;;
18320;SDS011;54904;54.350;18.664;2022-11-15T11:38:01;21.37;;;11.30;;
18320;SDS011;54904;54.350;18.664;2022-11-15T11:40:43;22.50;;;11.33;;
18320;SDS011;54904;54.350;18.664;2022-11-15T11:43:18;22.00;;;11.87;;
18320;SDS011;54904;54.350;18.664;2022-11-15T11:45:56;26.40;;;12.90;;
18320;SDS011;54904;54.350;18.664;2022-11-15T11:48:40;22.30;;;11.93;;
18320;SDS011;54904;54.350;18.664;2022-11-15T11:51:11;22.20;;;11.33;;
18320;SDS011;54904;54.350;18.664;2022-11-15T11:53:45;25.07;;;12.60;;
18320;SDS011;54904;54.350;18.664;2022-11-15T11:56:19;19.97;;;10.80;;
18320;SDS011;54904;54.350;18.664;2022-11-15T11:58:52;21.10;;;10.93;;
18320;SDS011;54904;54.350;18.664;2022-11-15T12:05:04;17.40;;;9.20;;
18320;SDS011;54904;54.350;18.664;2022-11-15T12:07:38;16.80;;;9.23;;
18320;SDS011;54904;54.350;18.664;2022-11-15T12:10:14;16.50;;;8.80;;
18320;SDS011;54904;54.350;18.664;2022-11-15T12:12:47;23.30;;;11.97;;
18320;SDS011;54904;54.350;18.664;2022-11-15T12:15:19;33.63;;;16.30;;
18320;SDS011;54904;54.350;18.664;2022-11-15T12:17:49;30.00;;;15.23;;
18320;SDS011;54904;54.350;18.664;2022-11-15T12:20:18;27.57;;;13.70;;
18320;SDS011;54904;54.350;18.664;2022-11-15T12:22:47;30.53;;;14.57;;
18320;SDS011;54904;54.350;18.664;2022-11-15T12:25:21;35.43;;;16.33;;
18320;SDS011;54904;54.350;18.664;2022-11-15T12:27:54;27.10;;;14.60;;
18320;SDS011;54904;54.350;18.664;2022-11-15T12:30:23;30.97;;;14.90;;
18320;SDS011;54904;54.350;18.664;2022-11-15T12:32:55;32.40;;;15.53;;
18320;SDS011;54904;54.350;18.664;2022-11-15T12:35:26;35.20;;;16.27;;
18320;SDS011;54904;54.350;18.664;2022-11-15T12:37:56;45.90;;;24.43;;
18320;SDS011;54904;54.350;18.664;2022-11-15T12:40:29;47.43;;;24.77;;
18320;SDS011;54904;54.350;18.664;2022-11-15T12:43:02;41.93;;;24.63;;
18320;SDS011;54904;54.350;18.664;2022-11-15T12:45:51;30.27;;;18.87;;
18320;SDS011;54904;54.350;18.664;2022-11-15T12:51:15;34.30;;;17.73;;
18320;SDS011;54904;54.350;18.664;2022-11-15T12:53:43;32.90;;;16.20;;
18320;SDS011;54904;54.350;18.664;2022-11-15T12:56:24;28.23;;;13.97;;
18320;SDS011;54904;54.350;18.664;2022-11-15T12:58:55;34.10;;;15.77;;
18320;SDS011;54904;54.350;18.664;2022-11-15T13:04:23;34.93;;;15.73;;
18320;SDS011;54904;54.350;18.664;2022-11-15T13:06:58;36.33;;;16.03;;
18320;SDS011;54904;54.350;18.664;2022-11-15T13:15:34;19.80;;;10.67;;
18320;SDS011;54904;54.350;18.664;2022-11-15T13:18:30;26.93;;;13.80;;
18320;SDS011;54904;54.350;18.664;2022-11-15T13:21:00;40.97;;;18.10;;
18320;SDS011;54904;54.350;18.664;2022-11-15T13:23:51;40.67;;;17.37;;
18320;SDS011;54904;54.350;18.664;2022-11-15T13:26:19;29.23;;;12.93;;
18320;SDS011;54904;54.350;18.664;2022-11-15T13:28:49;23.87;;;11.50;;
18320;SDS011;54904;54.350;18.664;2022-11-15T13:31:30;32.27;;;14.80;;
18320;SDS011;54904;54.350;18.664;2022-11-15T13:34:03;30.27;;;14.10;;
18320;SDS011;54904;54.350;18.664;2022-11-15T13:36:43;29.13;;;13.20;;
18320;SDS011;54904;54.350;18.664;2022-11-15T13:39:14;26.90;;;12.97;;
18320;SDS011;54904;54.350;18.664;2022-11-15T13:41:53;33.10;;;15.30;;
18320;SDS011;54904;54.350;18.664;2022-11-15T13:44:23;32.10;;;15.60;;
18320;SDS011;54904;54.350;18.664;2022-11-15T13:47:00;39.67;;;18.43;;
18320;SDS011;54904;54.350;18.664;2022-11-15T13:49:31;38.73;;;17.83;;
18320;SDS011;54904;54.350;18.664;2022-11-15T13:52:00;37.27;;;17.47;;
18320;SDS011;54904;54.350;18.664;2022-11-15T13:54:29;35.07;;;16.63;;
18320;SDS011;54904;54.350;18.664;2022-11-15T13:57:00;28.60;;;13.57;;
18320;SDS011;54904;54.350;18.664;2022-11-15T13:59:33;29.60;;;14.60;;
18320;SDS011;54904;54.350;18.664;2022-11-15T14:02:02;30.47;;;12.57;;
18320;SDS011;54904;54.350;18.664;2022-11-15T14:04:38;25.97;;;12.30;;
18320;SDS011;54904;54.350;18.664;2022-11-15T14:07:19;24.50;;;12.10;;
18320;SDS011;54904;54.350;18.664;2022-11-15T14:10:24;20.90;;;9.80;;
18320;SDS011;54904;54.350;18.664;2022-11-15T14:12:54;23.90;;;11.53;;
18320;SDS011;54904;54.350;18.664;2022-11-15T14:15:26;24.47;;;12.50;;
18320;SDS011;54904;54.350;18.664;2022-11-15T14:17:56;29.50;;;14.53;;
18320;SDS011;54904;54.350;18.664;2022-11-15T14:20:31;26.80;;;14.07;;
18320;SDS011;54904;54.350;18.664;2022-11-15T14:23:00;27.73;;;12.83;;
18320;SDS011;54904;54.350;18.664;2022-11-15T14:25:29;24.07;;;12.77;;
18320;SDS011;54904;54.350;18.664;2022-11-15T14:28:11;18.90;;;10.40;;
18320;SDS011;54904;54.350;18.664;2022-11-15T14:30:56;25.67;;;12.20;;
18320;SDS011;54904;54.350;18.664;2022-11-15T14:33:25;21.87;;;11.03;;
18320;SDS011;54904;54.350;18.664;2022-11-15T14:35:55;15.27;;;9.10;;
18320;SDS011;54904;54.350;18.664;2022-11-15T14:38:23;18.60;;;9.70;;
18320;SDS011;54904;54.350;18.664;2022-11-15T14:40:51;17.50;;;9.37;;
18320;SDS011;54904;54.350;18.664;2022-11-15T14:43:20;14.83;;;8.10;;
18320;SDS011;54904;54.350;18.664;2022-11-15T14:45:48;12.33;;;7.57;;
18320;SDS011;54904;54.350;18.664;2022-11-15T14:48:17;16.07;;;8.70;;
18320;SDS011;54904;54.350;18.664;2022-11-15T14:50:44;17.57;;;8.50;;
18320;SDS011;54904;54.350;18.664;2022-11-15T14:53:12;12.50;;;7.37;;
18320;SDS011;54904;54.350;18.664;2022-11-15T14:55:41;22.03;;;10.30;;
18320;SDS011;54904;54.350;18.664;2022-11-15T14:58:16;17.57;;;9.83;;
18320;SDS011;54904;54.350;18.664;2022-11-15T15:01:02;14.47;;;8.40;;
18320;SDS011;54904;54.350;18.664;2022-11-15T15:03:35;9.60;;;6.20;;
18320;SDS011;54904;54.350;18.664;2022-11-15T15:06:03;12.77;;;7.13;;
18320;SDS011;54904;54.350;18.664;2022-11-15T15:08:30;10.30;;;6.33;;
18320;SDS011;54904;54.350;18.664;2022-11-15T15:10:57;11.53;;;6.90;;
18320;SDS011;54904;54.350;18.664;2022-11-15T15:13:24;13.63;;;7.43;;
18320;SDS011;54904;54.350;18.664;2022-11-15T15:15:55;13.47;;;7.50;;
18320;SDS011;54904;54.350;18.664;2022-11-15T15:21:34;9.60;;;5.90;;
18320;SDS011;54904;54.350;18.664;2022-11-15T15:24:01;10.10;;;6.07;;
18320;SDS011;54904;54.350;18.664;2022-11-15T15:26:28;13.17;;;5.83;;
18320;SDS011;54904;54.350;18.664;2022-11-15T15:29:01;14.07;;;6.27;;
18320;SDS011;54904;54.350;18.664;2022-11-15T15:31:28;10.27;;;5.50;;
18320;SDS011;54904;54.350;18.664;2022-11-15T15:33:57;10.70;;;6.13;;
18320;SDS011;54904;54.350;18.664;2022-11-15T15:36:24;11.27;;;6.30;;
18320;SDS011;54904;54.350;18.664;2022-11-15T15:38:51;13.57;;;7.67;;
18320;SDS011;54904;54.350;18.664;2022-11-15T15:41:18;15.30;;;8.10;;
18320;SDS011;54904;54.350;18.664;2022-11-15T15:43:46;23.27;;;10.87;;
18320;SDS011;54904;54.350;18.664;2022-11-15T15:46:14;19.47;;;10.17;;
18320;SDS011;54904;54.350;18.664;2022-11-15T15:48:42;14.67;;;7.60;;
18320;SDS011;54904;54.350;18.664;2022-11-15T15:51:11;11.90;;;7.20;;
18320;SDS011;54904;54.350;18.664;2022-11-15T15:53:38;24.37;;;11.63;;
18320;SDS011;54904;54.350;18.664;2022-11-15T15:56:05;17.87;;;9.60;;
18320;SDS011;54904;54.350;18.664;2022-11-15T15:58:33;13.90;;;7.80;;
18320;SDS011;54904;54.350;18.664;2022-11-15T16:01:00;14.10;;;7.60;;
18320;SDS011;54904;54.350;18.664;2022-11-15T16:03:28;13.03;;;6.90;;